Terminal Aerodrome Forecast
Issued by NWS

Home | Current Version | Previous Version | Text Only | Print | Product List | Glossary On
Versions: 1 2 3 4 5 6 7 8 9 10 11 12 13 14 15 16 17 18 19 20 21 22 23 24 25 26 27 28
000
FTUS41 KRNK 290521
TAFLWB
TAF
KLWB 290521Z 2906/3006 00000KT P6SM SKC
     FM290700 00000KT 4SM BR SCT001
      TEMPO 2908/2912 1/2SM FG BKN002
     FM291400 VRB03KT P6SM BKN025
     FM291700 17005KT 5SM SHRA VCTS BKN050CB
     FM300000 VRB03KT P6SM SCT035 BKN080=

USA.gov is the U.S. government's official web portal to all federal, state and local government web resources and services.